Time;durP1;ratioP1;P1;durP2;ratioP2;P2;SDS_P1;SDS_P2;PMS_P1;PMS_P2;Temp;Humidity;BMP_temperature;BMP_pressure;BME280_temperature;BME280_humidity;BME280_pressure;Samples;Min_cycle;Max_cycle;Signal;HPM_P1;HPM_P2
2021/12/31 00:00:46;;;;;;;9.45;3.58;;;;;;;;;;5063582;28;20084;-81
2021/12/31 00:03:13;;;;;;;9.27;3.40;;;;;;;;;;5051665;28;20064;-82
2021/12/31 00:05:40;;;;;;;7.20;3.28;;;;;;;;;;5053255;28;20104;-82
2021/12/31 00:08:06;;;;;;;10.68;3.65;;;;;;;;;;5047002;28;20057;-80
2021/12/31 00:10:33;;;;;;;11.50;4.07;;;;;;;;;;5069905;28;20472;-82
2021/12/31 00:12:59;;;;;;;10.35;3.90;;;;;;;;;;5035820;28;20332;-82
2021/12/31 00:15:25;;;;;;;9.95;3.53;;;;;;;;;;5056946;28;20053;-82
2021/12/31 00:17:52;;;;;;;10.95;3.30;;;;;;;;;;5074262;28;20102;-82
2021/12/31 00:20:22;;;;;;;11.10;3.30;;;;;;;;;;5065946;28;20879;-82
2021/12/31 00:25:24;;;;;;;8.80;2.65;;;;;;;;;;5061481;28;20758;-83
2021/12/31 00:27:50;;;;;;;10.80;3.25;;;;;;;;;;5068672;28;20059;-82
2021/12/31 00:30:17;;;;;;;10.38;2.92;;;;;;;;;;5078597;28;20057;-81
2021/12/31 00:32:43;;;;;;;8.63;2.80;;;;;;;;;;5053668;28;20083;-80
2021/12/31 00:35:11;;;;;;;6.47;2.50;;;;;;;;;;5053285;28;20053;-81
2021/12/31 00:37:38;;;;;;;7.97;2.60;;;;;;;;;;5053436;28;20139;-81
2021/12/31 00:40:06;;;;;;;11.35;3.40;;;;;;;;;;5061642;28;20508;-82
2021/12/31 00:42:32;;;;;;;6.80;2.50;;;;;;;;;;5063568;28;20099;-81
2021/12/31 00:44:59;;;;;;;7.40;2.58;;;;;;;;;;5073440;28;20076;-82
2021/12/31 00:47:25;;;;;;;13.48;2.95;;;;;;;;;;5056155;28;20053;-82
2021/12/31 00:49:51;;;;;;;11.77;2.53;;;;;;;;;;5046473;28;20057;-82
2021/12/31 00:52:18;;;;;;;12.05;2.72;;;;;;;;;;5049128;28;20143;-80
2021/12/31 00:54:44;;;;;;;12.15;2.45;;;;;;;;;;5071009;28;20127;-81
2021/12/31 00:57:11;;;;;;;8.38;2.83;;;;;;;;;;5035831;28;20153;-82
2021/12/31 00:59:38;;;;;;;9.05;2.78;;;;;;;;;;5042773;28;20053;-82
2021/12/31 01:02:05;;;;;;;8.23;2.70;;;;;;;;;;5033277;28;20656;-80
2021/12/31 01:04:32;;;;;;;6.55;2.33;;;;;;;;;;5068716;28;20053;-82
2021/12/31 01:06:59;;;;;;;8.88;2.58;;;;;;;;;;5041382;28;20092;-80
2021/12/31 01:09:26;;;;;;;10.10;2.53;;;;;;;;;;5032681;28;20085;-82
2021/12/31 01:11:52;;;;;;;7.65;2.20;;;;;;;;;;5064983;28;20520;-82
2021/12/31 01:14:33;;;;;;;7.63;2.65;;;;;;;;;;5050741;28;20060;-82
2021/12/31 01:17:03;;;;;;;6.25;2.40;;;;;;;;;;5050914;28;20050;-80
2021/12/31 01:19:46;;;;;;;5.65;2.10;;;;;;;;;;5032854;28;20492;-82
2021/12/31 01:22:13;;;;;;;4.53;2.15;;;;;;;;;;5050142;28;20057;-81
2021/12/31 01:24:40;;;;;;;7.55;2.00;;;;;;;;;;5050761;28;20050;-80
2021/12/31 01:27:06;;;;;;;7.03;2.28;;;;;;;;;;5036957;28;20104;-82
2021/12/31 01:29:33;;;;;;;4.20;1.80;;;;;;;;;;5071579;28;20057;-82
2021/12/31 01:31:59;;;;;;;7.30;2.10;;;;;;;;;;5036895;28;20147;-82
2021/12/31 01:34:25;;;;;;;7.97;2.40;;;;;;;;;;5047168;28;20091;-82
2021/12/31 01:36:52;;;;;;;6.35;2.58;;;;;;;;;;5074245;28;20068;-82
2021/12/31 01:39:20;;;;;;;5.32;2.28;;;;;;;;;;5046114;28;20052;-82
2021/12/31 01:41:46;;;;;;;7.35;2.10;;;;;;;;;;5053372;28;20053;-82
2021/12/31 01:44:13;;;;;;;7.82;2.30;;;;;;;;;;5053038;28;20107;-80
2021/12/31 01:46:56;;;;;;;8.07;2.35;;;;;;;;;;5058748;28;20498;-82
2021/12/31 01:49:27;;;;;;;6.78;2.25;;;;;;;;;;5052290;28;20136;-82
2021/12/31 01:51:53;;;;;;;;;;;;;;;;;;5068013;28;20108;-81
2021/12/31 01:54:20;;;;;;;6.93;2.00;;;;;;;;;;5055006;28;43995;-80
2021/12/31 01:56:48;;;;;;;7.25;2.33;;;;;;;;;;5055403;28;20059;-82
2021/12/31 01:59:15;;;;;;;5.82;1.77;;;;;;;;;;5054620;28;20053;-82
2021/12/31 02:01:41;;;;;;;9.10;2.08;;;;;;;;;;5063204;28;20081;-80
2021/12/31 02:04:08;;;;;;;7.70;2.33;;;;;;;;;;5053408;28;20096;-82
2021/12/31 02:06:34;;;;;;;6.25;2.00;;;;;;;;;;5051352;28;20064;-82
2021/12/31 02:09:02;;;;;;;6.68;2.25;;;;;;;;;;5063358;28;20052;-82
2021/12/31 02:11:28;;;;;;;6.80;2.58;;;;;;;;;;5076255;28;20072;-82
2021/12/31 02:13:55;;;;;;;6.70;2.05;;;;;;;;;;5072934;28;20095;-82
2021/12/31 02:16:22;;;;;;;6.50;2.53;;;;;;;;;;5053646;28;20081;-82
2021/12/31 02:18:48;;;;;;;6.82;1.90;;;;;;;;;;5072110;28;20059;-80
2021/12/31 02:21:16;;;;;;;5.50;2.00;;;;;;;;;;5050467;28;20041;-82
2021/12/31 02:23:45;;;;;;;6.72;2.20;;;;;;;;;;5051113;28;20088;-80
2021/12/31 02:26:12;;;;;;;6.90;2.50;;;;;;;;;;5053577;28;20041;-82
2021/12/31 02:28:39;;;;;;;6.30;2.22;;;;;;;;;;5053570;28;20147;-83
2021/12/31 02:31:06;;;;;;;8.95;2.25;;;;;;;;;;5054425;28;20029;-81
2021/12/31 02:33:33;;;;;;;7.40;2.10;;;;;;;;;;5072518;28;20081;-82
2021/12/31 02:36:00;;;;;;;7.15;1.85;;;;;;;;;;5059088;28;20061;-80
2021/12/31 02:38:26;;;;;;;6.97;2.15;;;;;;;;;;5044400;28;20911;-82
2021/12/31 02:40:53;;;;;;;10.63;2.28;;;;;;;;;;5069618;28;20092;-82
2021/12/31 02:43:19;;;;;;;6.95;2.15;;;;;;;;;;5045448;28;20053;-81
2021/12/31 02:45:47;;;;;;;9.05;2.05;;;;;;;;;;5035102;28;20053;-81
2021/12/31 02:48:14;;;;;;;9.07;2.00;;;;;;;;;;5053486;28;20060;-81
2021/12/31 02:50:41;;;;;;;7.85;2.38;;;;;;;;;;5048232;28;20420;-80
2021/12/31 02:53:12;;;;;;;9.52;2.10;;;;;;;;;;5052369;28;20097;-82
2021/12/31 02:55:39;;;;;;;5.55;1.85;;;;;;;;;;5053267;28;20085;-81
2021/12/31 02:58:07;;;;;;;8.05;2.35;;;;;;;;;;5052960;28;20052;-82
2021/12/31 03:00:34;;;;;;;5.20;2.17;;;;;;;;;;5052920;28;20053;-82
2021/12/31 03:03:01;;;;;;;7.57;2.42;;;;;;;;;;5059186;28;20078;-80
2021/12/31 03:05:28;;;;;;;5.72;2.10;;;;;;;;;;5071738;28;20049;-82
2021/12/31 03:07:55;;;;;;;11.07;2.65;;;;;;;;;;5048891;28;20130;-81
2021/12/31 03:10:23;;;;;;;7.13;2.30;;;;;;;;;;5072932;28;20053;-83
2021/12/31 03:12:50;;;;;;;6.57;2.40;;;;;;;;;;5070800;28;20079;-81
2021/12/31 03:15:17;;;;;;;10.20;2.60;;;;;;;;;;5063776;28;20058;-82
2021/12/31 03:17:44;;;;;;;7.57;2.50;;;;;;;;;;5052487;28;20058;-80
2021/12/31 03:20:14;;;;;;;6.32;2.42;;;;;;;;;;5052676;28;20057;-82
2021/12/31 03:22:41;;;;;;;7.13;2.45;;;;;;;;;;5034470;28;20144;-82
2021/12/31 03:25:09;;;;;;;6.80;2.20;;;;;;;;;;5042870;28;20092;-80
2021/12/31 03:27:35;;;;;;;7.05;2.58;;;;;;;;;;5056153;28;20049;-82
2021/12/31 03:30:03;;;;;;;6.95;2.42;;;;;;;;;;5052438;28;20053;-82
2021/12/31 03:32:29;;;;;;;12.50;2.35;;;;;;;;;;5064977;28;20103;-81
2021/12/31 03:34:55;;;;;;;6.90;2.78;;;;;;;;;;5053499;28;20069;-82
2021/12/31 03:37:22;;;;;;;8.95;2.50;;;;;;;;;;5053464;28;20053;-83
2021/12/31 03:39:48;;;;;;;8.00;2.20;;;;;;;;;;5053793;28;20581;-80
2021/12/31 03:42:16;;;;;;;10.38;2.50;;;;;;;;;;5057185;28;20111;-82
2021/12/31 03:44:42;;;;;;;9.00;2.80;;;;;;;;;;5033511;28;20053;-82
2021/12/31 03:47:09;;;;;;;8.45;2.50;;;;;;;;;;5034380;28;20112;-80
2021/12/31 03:49:35;;;;;;;9.30;2.47;;;;;;;;;;5032915;28;20065;-80
2021/12/31 03:52:02;;;;;;;8.98;2.45;;;;;;;;;;5047508;28;20534;-82
2021/12/31 03:54:28;;;;;;;7.32;2.30;;;;;;;;;;5052235;28;20104;-82
2021/12/31 03:56:55;;;;;;;7.75;2.45;;;;;;;;;;5052329;28;20901;-82
2021/12/31 03:59:21;;;;;;;7.15;2.40;;;;;;;;;;5050468;28;20057;-83
2021/12/31 04:01:48;;;;;;;9.77;2.50;;;;;;;;;;5055953;28;20052;-81
2021/12/31 04:04:14;;;;;;;5.43;2.55;;;;;;;;;;5051614;28;20089;-82
2021/12/31 04:06:41;;;;;;;11.00;2.50;;;;;;;;;;5039070;28;20060;-82
2021/12/31 04:09:07;;;;;;;9.18;2.75;;;;;;;;;;5051627;28;20084;-82
2021/12/31 04:11:33;;;;;;;5.68;2.03;;;;;;;;;;5050012;28;20103;-82
2021/12/31 04:14:00;;;;;;;9.07;2.45;;;;;;;;;;5065398;28;20069;-82
2021/12/31 04:16:26;;;;;;;6.72;2.25;;;;;;;;;;5033935;28;20054;-81
2021/12/31 04:18:53;;;;;;;10.38;2.58;;;;;;;;;;5057258;28;20124;-82
2021/12/31 04:21:22;;;;;;;7.13;2.28;;;;;;;;;;5039145;28;20168;-82
2021/12/31 04:23:52;;;;;;;8.30;2.55;;;;;;;;;;5040819;28;20100;-82
2021/12/31 04:26:19;;;;;;;7.75;2.65;;;;;;;;;;5051788;28;20092;-80
2021/12/31 04:28:45;;;;;;;6.70;2.08;;;;;;;;;;5070470;28;20088;-82
2021/12/31 04:31:12;;;;;;;11.32;2.33;;;;;;;;;;5052800;28;20100;-82
2021/12/31 04:33:38;;;;;;;9.45;2.22;;;;;;;;;;5033414;28;20088;-83
2021/12/31 04:36:05;;;;;;;8.00;2.90;;;;;;;;;;5032643;28;20061;-82
2021/12/31 04:38:31;;;;;;;7.13;2.28;;;;;;;;;;5051280;28;20070;-83
2021/12/31 04:40:57;;;;;;;7.70;2.53;;;;;;;;;;5037915;28;20053;-80
2021/12/31 04:43:24;;;;;;;10.55;2.42;;;;;;;;;;5073261;28;20096;-82
2021/12/31 04:45:50;;;;;;;8.48;2.75;;;;;;;;;;5073089;28;21026;-81
2021/12/31 04:48:17;;;;;;;8.70;2.40;;;;;;;;;;5061447;28;20106;-82
2021/12/31 04:50:43;;;;;;;6.68;2.58;;;;;;;;;;5058072;28;20088;-82
2021/12/31 04:53:09;;;;;;;8.18;2.40;;;;;;;;;;5032480;28;20107;-82
2021/12/31 04:55:36;;;;;;;5.68;2.33;;;;;;;;;;5055581;28;20057;-82
2021/12/31 04:58:02;;;;;;;8.25;2.65;;;;;;;;;;5056566;28;20054;-82
2021/12/31 05:00:28;;;;;;;7.90;2.63;;;;;;;;;;5058866;28;20558;-81
2021/12/31 05:02:55;;;;;;;8.02;2.70;;;;;;;;;;5049897;28;20034;-82
2021/12/31 05:05:22;;;;;;;7.93;2.33;;;;;;;;;;5049941;28;20056;-82
2021/12/31 05:07:48;;;;;;;10.48;2.45;;;;;;;;;;5032520;28;20057;-82
2021/12/31 05:10:15;;;;;;;7.45;2.40;;;;;;;;;;5050291;28;20115;-81
2021/12/31 05:12:42;;;;;;;6.57;2.25;;;;;;;;;;5047005;28;20562;-82
2021/12/31 05:15:10;;;;;;;7.97;2.42;;;;;;;;;;5049613;28;20527;-82
2021/12/31 05:17:36;;;;;;;6.10;2.33;;;;;;;;;;5050189;28;20087;-82
2021/12/31 05:20:04;;;;;;;8.98;2.72;;;;;;;;;;5066355;28;20084;-82
2021/12/31 05:22:30;;;;;;;6.28;2.50;;;;;;;;;;5070681;28;20079;-82
2021/12/31 05:24:56;;;;;;;9.07;2.70;;;;;;;;;;5050204;28;20053;-82
2021/12/31 05:27:23;;;;;;;6.40;2.40;;;;;;;;;;5052361;28;20092;-82
2021/12/31 05:29:49;;;;;;;7.60;2.70;;;;;;;;;;5044296;28;20058;-82
2021/12/31 05:32:15;;;;;;;8.45;2.60;;;;;;;;;;5031984;28;20475;-83
2021/12/31 05:34:42;;;;;;;8.77;2.50;;;;;;;;;;5048885;28;20058;-82
2021/12/31 05:37:08;;;;;;;9.65;2.50;;;;;;;;;;5053886;28;20073;-80
2021/12/31 05:39:35;;;;;;;8.35;2.67;;;;;;;;;;5057917;28;20077;-82
2021/12/31 05:42:01;;;;;;;6.80;2.50;;;;;;;;;;5055054;28;20190;-82
2021/12/31 05:44:27;;;;;;;6.35;2.50;;;;;;;;;;5069321;28;20511;-82
2021/12/31 05:46:55;;;;;;;8.02;2.95;;;;;;;;;;5053556;28;20064;-82
2021/12/31 05:49:26;;;;;;;6.00;2.40;;;;;;;;;;5064807;28;20136;-82
2021/12/31 05:51:53;;;;;;;8.60;2.55;;;;;;;;;;5032052;28;20084;-82
2021/12/31 05:54:19;;;;;;;7.47;2.63;;;;;;;;;;5051706;28;20056;-80
2021/12/31 05:56:46;;;;;;;6.88;2.65;;;;;;;;;;5052048;28;20037;-82
2021/12/31 05:59:12;;;;;;;9.57;2.50;;;;;;;;;;5068701;28;20088;-82
2021/12/31 06:01:44;;;;;;;6.90;2.60;;;;;;;;;;5054283;28;22013;-82
2021/12/31 06:04:11;;;;;;;7.65;2.45;;;;;;;;;;5059840;28;20048;-82
2021/12/31 06:06:37;;;;;;;12.20;2.70;;;;;;;;;;5032002;28;20081;-82
2021/12/31 06:09:05;;;;;;;6.53;2.58;;;;;;;;;;5061247;28;20095;-82
2021/12/31 06:11:31;;;;;;;8.10;2.60;;;;;;;;;;5035060;28;20092;-82
2021/12/31 06:14:03;;;;;;;9.40;2.63;;;;;;;;;;5050072;28;20570;-82
2021/12/31 06:16:33;;;;;;;6.82;2.50;;;;;;;;;;5052897;28;20512;-82
2021/12/31 06:19:02;;;;;;;6.00;2.38;;;;;;;;;;5048636;28;20064;-82
2021/12/31 06:21:28;;;;;;;7.35;2.42;;;;;;;;;;5035055;28;20659;-82
2021/12/31 06:23:54;;;;;;;7.70;2.55;;;;;;;;;;5070196;28;20072;-82
2021/12/31 06:26:27;;;;;;;7.88;2.58;;;;;;;;;;5038075;28;20053;-80
2021/12/31 06:28:53;;;;;;;7.20;2.30;;;;;;;;;;5053571;28;20034;-82
2021/12/31 06:31:20;;;;;;;6.05;2.17;;;;;;;;;;5073172;28;20057;-82
2021/12/31 06:33:47;;;;;;;5.85;2.35;;;;;;;;;;5071862;28;20053;-82
2021/12/31 06:36:13;;;;;;;4.85;1.95;;;;;;;;;;5052893;28;20053;-82
2021/12/31 06:38:40;;;;;;;5.18;2.55;;;;;;;;;;5051312;28;20041;-82
2021/12/31 06:41:07;;;;;;;7.85;2.38;;;;;;;;;;5055327;28;20053;-82
2021/12/31 06:43:33;;;;;;;7.60;2.40;;;;;;;;;;5051995;28;20049;-82
2021/12/31 06:45:59;;;;;;;7.63;2.42;;;;;;;;;;5051623;28;20063;-81
2021/12/31 06:48:26;;;;;;;4.80;2.22;;;;;;;;;;5053226;28;20072;-82
2021/12/31 06:50:52;;;;;;;9.50;2.65;;;;;;;;;;5052928;28;20084;-80
2021/12/31 06:53:18;;;;;;;6.45;2.33;;;;;;;;;;5034697;28;20049;-81
2021/12/31 06:55:45;;;;;;;4.68;2.17;;;;;;;;;;5034390;28;20096;-82
2021/12/31 06:58:11;;;;;;;8.88;2.50;;;;;;;;;;5050432;28;20076;-83
2021/12/31 07:00:38;;;;;;;5.57;2.30;;;;;;;;;;5059619;28;20154;-82
2021/12/31 07:03:05;;;;;;;5.20;2.40;;;;;;;;;;5057504;28;20050;-80
2021/12/31 07:05:32;;;;;;;8.40;2.63;;;;;;;;;;5054023;28;20052;-82
2021/12/31 07:07:58;;;;;;;7.47;2.47;;;;;;;;;;5053177;28;20107;-83
2021/12/31 07:10:29;;;;;;;7.75;2.45;;;;;;;;;;5067363;28;20048;-82
2021/12/31 07:12:57;;;;;;;9.15;2.75;;;;;;;;;;5063730;28;20088;-80
2021/12/31 07:15:23;;;;;;;8.60;2.72;;;;;;;;;;5039327;28;20220;-81
2021/12/31 07:17:49;;;;;;;6.60;2.53;;;;;;;;;;5052085;28;20072;-81
2021/12/31 07:20:16;;;;;;;12.27;2.83;;;;;;;;;;5034653;28;20114;-82
2021/12/31 07:22:42;;;;;;;5.53;2.50;;;;;;;;;;5050984;28;20069;-82
2021/12/31 07:25:08;;;;;;;6.25;2.50;;;;;;;;;;5042126;28;20106;-81
2021/12/31 07:27:35;;;;;;;6.32;2.60;;;;;;;;;;5058827;28;20057;-82
2021/12/31 07:30:02;;;;;;;7.95;2.70;;;;;;;;;;5051110;28;20126;-82
2021/12/31 07:32:28;;;;;;;5.30;2.20;;;;;;;;;;5085166;28;20088;-81
2021/12/31 07:34:54;;;;;;;6.50;2.38;;;;;;;;;;5072112;28;20056;-80
2021/12/31 07:37:21;;;;;;;6.72;2.85;;;;;;;;;;5069433;28;20497;-81
2021/12/31 07:39:48;;;;;;;7.18;2.63;;;;;;;;;;5042560;28;20053;-82
2021/12/31 07:42:14;;;;;;;7.30;2.58;;;;;;;;;;5069376;28;20581;-81
2021/12/31 07:44:41;;;;;;;6.18;2.80;;;;;;;;;;5053325;28;20134;-80
2021/12/31 07:47:07;;;;;;;8.65;2.60;;;;;;;;;;5050640;28;20057;-80
2021/12/31 07:49:33;;;;;;;5.90;2.60;;;;;;;;;;5053751;28;20061;-81
2021/12/31 07:52:00;;;;;;;7.18;2.92;;;;;;;;;;5049425;28;20148;-82
2021/12/31 07:54:26;;;;;;;6.45;2.30;;;;;;;;;;5070743;28;20053;-82
2021/12/31 07:56:53;;;;;;;7.38;2.80;;;;;;;;;;5070929;28;20060;-81
2021/12/31 07:59:19;;;;;;;7.45;2.75;;;;;;;;;;5062933;28;20560;-79
2021/12/31 08:01:46;;;;;;;6.70;2.60;;;;;;;;;;5043656;28;20119;-81
2021/12/31 08:04:12;;;;;;;7.95;2.97;;;;;;;;;;5053127;28;20890;-81
2021/12/31 08:06:39;;;;;;;7.75;3.30;;;;;;;;;;5056738;28;20049;-81
2021/12/31 08:09:05;;;;;;;6.90;2.90;;;;;;;;;;5067416;28;20514;-82
2021/12/31 08:11:32;;;;;;;8.18;3.00;;;;;;;;;;5058721;28;20077;-82
2021/12/31 08:13:58;;;;;;;5.97;2.80;;;;;;;;;;5050461;28;20041;-82
2021/12/31 08:16:24;;;;;;;8.38;2.83;;;;;;;;;;5050756;28;20139;-80
2021/12/31 08:18:51;;;;;;;7.20;3.20;;;;;;;;;;5033743;28;20115;-81
2021/12/31 08:21:17;;;;;;;8.43;3.08;;;;;;;;;;5041282;28;20085;-80
2021/12/31 08:23:46;;;;;;;8.20;3.30;;;;;;;;;;5059996;28;20079;-82
2021/12/31 08:26:12;;;;;;;8.07;3.30;;;;;;;;;;5069945;28;20069;-81
2021/12/31 08:28:38;;;;;;;8.05;2.50;;;;;;;;;;5044832;28;20060;-82
2021/12/31 08:31:05;;;;;;;9.88;3.15;;;;;;;;;;5069064;28;20578;-81
2021/12/31 08:33:31;;;;;;;10.65;3.22;;;;;;;;;;5041900;28;20077;-82
2021/12/31 08:35:57;;;;;;;8.15;2.97;;;;;;;;;;5062606;28;20089;-80
2021/12/31 08:38:24;;;;;;;12.35;3.58;;;;;;;;;;5063894;28;20053;-82
2021/12/31 08:40:51;;;;;;;8.82;3.08;;;;;;;;;;5045255;28;20123;-81
2021/12/31 08:43:22;;;;;;;10.00;2.83;;;;;;;;;;5049173;28;20092;-80
2021/12/31 08:45:48;;;;;;;6.38;2.53;;;;;;;;;;5055489;28;20515;-81
2021/12/31 08:48:14;;;;;;;8.32;2.97;;;;;;;;;;5051342;28;20132;-82
2021/12/31 08:50:41;;;;;;;6.57;2.88;;;;;;;;;;5062234;28;20124;-82
2021/12/31 08:53:07;;;;;;;10.77;3.65;;;;;;;;;;5048484;28;20065;-82
2021/12/31 08:55:34;;;;;;;11.40;3.10;;;;;;;;;;5048838;28;20115;-80
2021/12/31 08:58:00;;;;;;;17.27;7.35;;;;;;;;;;5031594;28;20053;-81
2021/12/31 09:00:26;;;;;;;8.80;3.72;;;;;;;;;;5057515;28;20049;-82
2021/12/31 09:02:53;;;;;;;7.75;2.95;;;;;;;;;;5061503;28;20610;-81
2021/12/31 09:05:19;;;;;;;8.63;3.30;;;;;;;;;;5065118;28;20471;-80
2021/12/31 09:07:46;;;;;;;6.72;3.28;;;;;;;;;;5049745;28;20053;-82
2021/12/31 09:10:17;;;;;;;;;;;;;;;;;;5048648;28;20512;-82
2021/12/31 09:12:44;;;;;;;9.18;3.40;;;;;;;;;;5059312;28;44722;-82
2021/12/31 09:15:11;;;;;;;5.32;2.80;;;;;;;;;;5069478;28;20107;-82
2021/12/31 09:17:37;;;;;;;8.43;3.25;;;;;;;;;;5067711;28;20056;-81
2021/12/31 09:20:04;;;;;;;6.88;2.78;;;;;;;;;;5075285;28;20049;-82
2021/12/31 09:22:30;;;;;;;6.75;3.05;;;;;;;;;;5050995;28;20061;-82
2021/12/31 09:25:00;;;;;;;7.47;3.10;;;;;;;;;;5076751;28;20076;-81
2021/12/31 09:27:26;;;;;;;7.32;3.20;;;;;;;;;;5049861;28;20545;-79
2021/12/31 09:29:53;;;;;;;10.50;3.55;;;;;;;;;;5045488;28;20110;-81
2021/12/31 09:32:19;;;;;;;8.45;3.30;;;;;;;;;;5052086;28;20046;-80
2021/12/31 09:34:48;;;;;;;8.85;3.92;;;;;;;;;;5036143;28;20088;-81
2021/12/31 09:37:14;;;;;;;9.45;5.40;;;;;;;;;;5058051;28;20668;-81
2021/12/31 09:39:41;;;;;;;8.40;5.15;;;;;;;;;;5065810;28;20626;-80
2021/12/31 09:42:08;;;;;;;10.70;5.10;;;;;;;;;;5060134;28;20057;-81
2021/12/31 09:44:34;;;;;;;8.40;5.07;;;;;;;;;;5059407;28;20084;-81
2021/12/31 09:47:07;;;;;;;8.52;3.47;;;;;;;;;;5042276;28;20050;-82
2021/12/31 09:49:34;;;;;;;9.43;3.42;;;;;;;;;;5045585;28;20053;-79
2021/12/31 09:52:01;;;;;;;10.65;3.60;;;;;;;;;;5083777;28;20106;-82
2021/12/31 09:54:27;;;;;;;9.70;3.20;;;;;;;;;;5068563;28;20053;-80
2021/12/31 09:56:54;;;;;;;12.80;7.88;;;;;;;;;;5065631;28;20552;-81
2021/12/31 09:59:23;;;;;;;9.32;3.35;;;;;;;;;;5087731;28;20103;-80
2021/12/31 10:01:51;;;;;;;10.07;5.22;;;;;;;;;;5065688;28;20060;-81
2021/12/31 10:04:18;;;;;;;9.85;6.15;;;;;;;;;;5035110;28;20053;-81
2021/12/31 10:07:05;;;;;;;6.72;2.80;;;;;;;;;;5038540;28;20136;-80
2021/12/31 10:09:32;;;;;;;7.05;3.20;;;;;;;;;;5061618;28;20057;-81
2021/12/31 10:12:06;;;;;;;10.25;4.72;;;;;;;;;;5048812;28;20486;-82
2021/12/31 10:14:34;;;;;;;11.27;5.80;;;;;;;;;;5064034;28;20092;-82
2021/12/31 10:17:01;;;;;;;7.70;3.65;;;;;;;;;;5053885;28;20057;-80
2021/12/31 10:19:27;;;;;;;8.00;3.58;;;;;;;;;;5068065;28;20061;-81
2021/12/31 10:21:56;;;;;;;9.20;3.50;;;;;;;;;;5034482;28;20057;-82
2021/12/31 10:24:33;;;;;;;8.05;3.60;;;;;;;;;;5040978;28;20103;-82
2021/12/31 10:27:02;;;;;;;11.05;3.47;;;;;;;;;;5067389;28;20061;-79
2021/12/31 10:29:29;;;;;;;10.00;3.33;;;;;;;;;;5051693;28;20108;-82
2021/12/31 10:31:55;;;;;;;10.45;4.10;;;;;;;;;;5034039;28;20111;-82
2021/12/31 10:34:25;;;;;;;7.85;3.45;;;;;;;;;;5043754;28;20053;-81
2021/12/31 10:36:52;;;;;;;7.80;3.85;;;;;;;;;;5065869;28;20065;-82
2021/12/31 10:39:23;;;;;;;9.50;3.72;;;;;;;;;;5035735;28;20879;-82
2021/12/31 10:42:06;;;;;;;7.57;3.33;;;;;;;;;;5034073;28;20071;-79
2021/12/31 10:44:47;;;;;;;6.95;3.28;;;;;;;;;;5051776;28;20541;-81
2021/12/31 10:47:18;;;;;;;7.93;3.30;;;;;;;;;;5065510;28;20053;-82
2021/12/31 10:50:00;;;;;;;9.13;3.47;;;;;;;;;;5071445;28;20053;-81
2021/12/31 10:52:33;;;;;;;8.65;3.67;;;;;;;;;;5041130;28;20081;-82
2021/12/31 10:55:03;;;;;;;11.00;3.90;;;;;;;;;;5046219;28;20106;-81
2021/12/31 10:57:36;;;;;;;8.23;3.10;;;;;;;;;;5053430;28;20119;-81
2021/12/31 11:00:06;;;;;;;8.73;3.50;;;;;;;;;;5036157;28;20107;-82
2021/12/31 11:02:37;;;;;;;8.13;3.60;;;;;;;;;;5033147;28;20053;-79
2021/12/31 11:05:04;;;;;;;9.90;3.53;;;;;;;;;;5033847;28;20057;-82
2021/12/31 11:07:34;;;;;;;8.90;3.50;;;;;;;;;;5043065;28;20053;-82
2021/12/31 11:10:24;;;;;;;7.50;3.08;;;;;;;;;;5051084;28;20162;-82
2021/12/31 11:12:51;;;;;;;;;;;;;;;;;;5051406;28;20554;-82
2021/12/31 11:15:17;;;;;;;8.30;3.05;;;;;;;;;;5071091;28;45343;-82
2021/12/31 11:17:45;;;;;;;6.97;2.90;;;;;;;;;;5049879;28;20049;-81
2021/12/31 11:20:12;;;;;;;6.72;2.90;;;;;;;;;;5078023;28;20092;-82
2021/12/31 11:22:39;;;;;;;6.97;3.30;;;;;;;;;;5057660;28;20057;-82
2021/12/31 11:25:17;;;;;;;7.60;3.00;;;;;;;;;;5054742;28;20059;-80
2021/12/31 11:27:47;;;;;;;7.55;2.60;;;;;;;;;;5059979;28;20065;-82
2021/12/31 11:30:32;;;;;;;7.90;3.00;;;;;;;;;;5032510;28;20095;-81
2021/12/31 11:33:04;;;;;;;7.72;2.92;;;;;;;;;;5070064;28;20107;-79
2021/12/31 11:35:38;;;;;;;8.48;3.10;;;;;;;;;;5051251;28;20581;-80
2021/12/31 11:38:15;;;;;;;8.05;3.13;;;;;;;;;;5070075;28;20057;-79
2021/12/31 11:40:50;;;;;;;9.80;3.15;;;;;;;;;;5041372;28;20530;-81
2021/12/31 11:43:24;;;;;;;7.15;2.88;;;;;;;;;;5043215;28;20119;-82
2021/12/31 11:46:12;;;;;;;12.00;3.60;;;;;;;;;;5047048;28;20060;-79
2021/12/31 11:48:46;;;;;;;11.02;3.47;;;;;;;;;;5049211;28;20505;-79
2021/12/31 11:51:24;;;;;;;8.70;3.58;;;;;;;;;;5049322;28;20107;-79
2021/12/31 11:53:59;;;;;;;8.25;3.38;;;;;;;;;;5053072;28;20149;-80
2021/12/31 11:56:47;;;;;;;9.35;3.30;;;;;;;;;;5051224;28;20045;-79
2021/12/31 11:59:14;;;;;;;9.13;3.00;;;;;;;;;;5047995;28;20080;-79
2021/12/31 12:01:43;;;;;;;9.30;3.33;;;;;;;;;;5041509;28;20111;-79
2021/12/31 12:04:17;;;;;;;13.38;3.17;;;;;;;;;;5053451;28;20539;-79
2021/12/31 12:06:55;;;;;;;10.35;3.05;;;;;;;;;;5065868;28;20107;-79
2021/12/31 12:09:22;;;;;;;9.82;3.38;;;;;;;;;;5066091;28;20053;-79
2021/12/31 12:12:05;;;;;;;9.88;3.70;;;;;;;;;;5044402;28;20508;-79
2021/12/31 12:14:36;;;;;;;6.80;3.05;;;;;;;;;;5035398;28;20064;-79
2021/12/31 12:17:03;;;;;;;8.77;3.28;;;;;;;;;;5047219;28;20056;-79
2021/12/31 12:19:45;;;;;;;11.57;6.93;;;;;;;;;;5062054;28;20085;-79
2021/12/31 12:22:28;;;;;;;8.15;3.50;;;;;;;;;;5043425;28;20143;-79
2021/12/31 12:24:55;;;;;;;11.50;4.07;;;;;;;;;;5049795;28;20100;-79
2021/12/31 12:27:23;;;;;;;11.43;3.55;;;;;;;;;;5033107;28;20053;-79
2021/12/31 12:29:50;;;;;;;10.65;3.97;;;;;;;;;;5052481;28;21474;-79
2021/12/31 12:32:18;;;;;;;10.40;4.80;;;;;;;;;;5063639;28;20125;-79
2021/12/31 12:34:44;;;;;;;9.77;3.93;;;;;;;;;;5029723;28;1044243;-80
2021/12/31 12:37:11;;;;;;;9.98;4.50;;;;;;;;;;5036269;28;20241;-79
2021/12/31 12:39:37;;;;;;;9.73;4.90;;;;;;;;;;5052093;28;20103;-79
2021/12/31 12:42:07;;;;;;;14.23;6.00;;;;;;;;;;5052136;28;20077;-79
2021/12/31 12:44:33;;;;;;;13.90;8.02;;;;;;;;;;5067045;28;20144;-79
2021/12/31 12:47:00;;;;;;;12.30;5.72;;;;;;;;;;5037390;28;20092;-79
2021/12/31 12:49:27;;;;;;;9.90;4.47;;;;;;;;;;5047636;28;20443;-79
2021/12/31 12:51:55;;;;;;;10.95;4.20;;;;;;;;;;5047724;28;20033;-79
2021/12/31 12:54:23;;;;;;;7.78;3.92;;;;;;;;;;5066410;28;20119;-79
2021/12/31 12:56:51;;;;;;;10.82;5.63;;;;;;;;;;5037519;28;20062;-79
2021/12/31 12:59:22;;;;;;;13.48;5.65;;;;;;;;;;5064902;28;20869;-80
2021/12/31 13:01:49;;;;;;;8.35;3.70;;;;;;;;;;5069342;28;20189;-80
2021/12/31 13:04:16;;;;;;;7.93;3.05;;;;;;;;;;5063750;28;20045;-80
2021/12/31 13:06:44;;;;;;;6.93;2.90;;;;;;;;;;5054839;28;20138;-79
2021/12/31 13:09:13;;;;;;;11.32;4.15;;;;;;;;;;5044811;28;21347;-79
2021/12/31 13:11:41;;;;;;;7.55;2.80;;;;;;;;;;5051265;28;20057;-79
2021/12/31 13:14:15;;;;;;;7.32;3.22;;;;;;;;;;5043223;28;20049;-79
2021/12/31 13:16:42;;;;;;;9.35;3.33;;;;;;;;;;5057216;28;20057;-81
2021/12/31 13:19:10;;;;;;;10.40;3.50;;;;;;;;;;5060750;28;20044;-79
2021/12/31 13:21:36;;;;;;;16.23;7.85;;;;;;;;;;5090822;28;20091;-80
2021/12/31 13:24:03;;;;;;;22.50;14.75;;;;;;;;;;5081908;28;20526;-79
2021/12/31 13:26:30;;;;;;;13.27;6.22;;;;;;;;;;5073259;28;21610;-79
2021/12/31 13:28:58;;;;;;;13.82;6.32;;;;;;;;;;5050822;28;20583;-79
2021/12/31 13:31:33;;;;;;;17.77;10.63;;;;;;;;;;5043393;28;20143;-79
2021/12/31 13:34:10;;;;;;;11.90;5.70;;;;;;;;;;5044348;28;20057;-79
2021/12/31 13:36:49;;;;;;;11.52;6.55;;;;;;;;;;5055803;28;20076;-79
2021/12/31 13:39:31;;;;;;;16.50;8.52;;;;;;;;;;5071886;28;20052;-79
2021/12/31 13:41:59;;;;;;;15.20;7.85;;;;;;;;;;5051041;28;20123;-79
2021/12/31 13:44:27;;;;;;;10.98;6.10;;;;;;;;;;5063748;28;20057;-79
2021/12/31 13:46:59;;;;;;;12.70;4.82;;;;;;;;;;5039377;28;20064;-79
2021/12/31 13:49:26;;;;;;;10.07;4.70;;;;;;;;;;5070566;28;20084;-79
2021/12/31 13:51:52;;;;;;;10.85;4.57;;;;;;;;;;5037399;28;20096;-80
2021/12/31 13:54:21;;;;;;;12.98;5.38;;;;;;;;;;5055196;28;20053;-80
2021/12/31 13:56:49;;;;;;;15.70;8.02;;;;;;;;;;5070743;28;20049;-80
2021/12/31 13:59:19;;;;;;;12.35;5.40;;;;;;;;;;5040264;28;20060;-80
2021/12/31 14:02:04;;;;;;;17.02;8.15;;;;;;;;;;5061108;28;20127;-80
2021/12/31 14:04:31;;;;;;;12.52;5.78;;;;;;;;;;5072193;28;20814;-80
2021/12/31 14:07:18;;;;;;;11.38;6.50;;;;;;;;;;5070451;28;20092;-80
2021/12/31 14:09:45;;;;;;;11.82;6.50;;;;;;;;;;5055654;28;20065;-80
2021/12/31 14:12:12;;;;;;;13.73;7.18;;;;;;;;;;5064305;28;20102;-80
2021/12/31 14:14:42;;;;;;;13.45;6.75;;;;;;;;;;5043957;28;20471;-80
2021/12/31 14:17:11;;;;;;;13.45;6.97;;;;;;;;;;5064914;28;20088;-80
2021/12/31 14:19:41;;;;;;;14.93;7.00;;;;;;;;;;5039593;28;20106;-80
2021/12/31 14:22:08;;;;;;;14.18;6.78;;;;;;;;;;5066060;28;20114;-80
2021/12/31 14:24:35;;;;;;;14.95;7.15;;;;;;;;;;5053330;28;20085;-80
2021/12/31 14:27:06;;;;;;;19.20;7.88;;;;;;;;;;5056544;28;20053;-80
2021/12/31 14:29:33;;;;;;;14.85;7.20;;;;;;;;;;5063713;28;20080;-80
2021/12/31 14:32:01;;;;;;;14.35;7.82;;;;;;;;;;5074986;28;20053;-80
2021/12/31 14:34:29;;;;;;;19.95;8.32;;;;;;;;;;5063683;28;20057;-80
2021/12/31 14:37:03;;;;;;;15.68;8.13;;;;;;;;;;5053041;28;20049;-80
2021/12/31 14:39:30;;;;;;;16.17;8.52;;;;;;;;;;5067332;28;20919;-80
2021/12/31 14:41:57;;;;;;;18.85;8.35;;;;;;;;;;5046461;28;20073;-80
2021/12/31 14:44:23;;;;;;;16.98;9.20;;;;;;;;;;5045908;28;20107;-80
2021/12/31 14:46:53;;;;;;;21.02;9.00;;;;;;;;;;5067631;28;20171;-80
2021/12/31 14:49:21;;;;;;;21.20;9.30;;;;;;;;;;5044310;28;20057;-81